createdAt,value
2022-11-26T00:00:59.697Z,97983.00
2022-11-26T00:03:26.328Z,97984.63
2022-11-26T00:05:56.714Z,97993.28
2022-11-26T00:08:30.384Z,97987.16
2022-11-26T00:10:57.807Z,97988.81
2022-11-26T00:13:27.528Z,97987.75
2022-11-26T00:15:54.297Z,97994.69
2022-11-26T00:18:23.387Z,97993.16
2022-11-26T00:20:59.496Z,97988.31
2022-11-26T00:23:27.954Z,97998.25
2022-11-26T00:26:01.411Z,97993.50
2022-11-26T00:28:35.844Z,98006.81
2022-11-26T00:31:12.353Z,98002.00
2022-11-26T00:33:38.847Z,98007.63
2022-11-26T00:36:16.802Z,98006.22
2022-11-26T00:38:44.072Z,98007.16
2022-11-26T00:41:25.846Z,98004.44
2022-11-26T00:43:52.567Z,98010.53
2022-11-26T00:46:21.240Z,98006.22
2022-11-26T00:48:48.320Z,98008.91
2022-11-26T00:51:18.843Z,98012.38
2022-11-26T00:53:46.911Z,98020.75
2022-11-26T00:56:20.749Z,98017.91
2022-11-26T00:58:48.734Z,98017.78
2022-11-26T01:01:20.817Z,98019.44
2022-11-26T01:03:47.719Z,98029.00
2022-11-26T01:06:34.085Z,98035.88
2022-11-26T01:09:00.877Z,98033.28
2022-11-26T01:11:27.763Z,98048.16
2022-11-26T01:13:55.882Z,98044.72
2022-11-26T01:16:25.613Z,98040.47
2022-11-26T01:18:54.812Z,98047.47
2022-11-26T01:21:22.867Z,98049.19
2022-11-26T01:23:49.529Z,98061.34
2022-11-26T01:26:27.666Z,98056.94
2022-11-26T01:28:55.229Z,98055.88
2022-11-26T01:31:24.912Z,98060.88
2022-11-26T01:33:51.513Z,98063.22
2022-11-26T01:36:20.945Z,98068.47
2022-11-26T01:38:47.509Z,98059.81
2022-11-26T01:41:27.128Z,98072.81
2022-11-26T01:43:57.678Z,98070.13
2022-11-26T01:46:26.376Z,98075.16
2022-11-26T01:48:53.136Z,98073.41
2022-11-26T01:51:27.198Z,98078.72
2022-11-26T01:54:00.789Z,98077.00
2022-11-26T01:56:36.245Z,98077.03
2022-11-26T01:59:15.092Z,98079.59
2022-11-26T02:01:41.699Z,98077.03
2022-11-26T02:04:21.788Z,98085.81
2022-11-26T02:06:49.932Z,98084.84
2022-11-26T02:09:17.779Z,98089.06
2022-11-26T02:11:45.008Z,98083.00
2022-11-26T02:14:37.132Z,98090.84
2022-11-26T02:17:20.872Z,98082.31
2022-11-26T02:20:12.506Z,98078.69
2022-11-26T02:23:24.639Z,98075.22
2022-11-26T02:26:09.137Z,98073.38
2022-11-26T02:28:58.521Z,98078.59
2022-11-26T02:31:40.163Z,98088.13
2022-11-26T02:34:34.260Z,98077.78
2022-11-26T02:37:13.236Z,98086.38
2022-11-26T02:39:39.778Z,98089.06
2022-11-26T02:42:25.322Z,98087.34
2022-11-26T02:44:52.942Z,98085.72
2022-11-26T02:47:21.010Z,98088.41
2022-11-26T02:49:50.333Z,98096.25
2022-11-26T02:52:19.605Z,98096.25
2022-11-26T02:54:48.877Z,98088.47
2022-11-26T02:57:18.692Z,98086.69
2022-11-26T02:59:45.310Z,98083.19
2022-11-26T03:02:24.705Z,98089.38
2022-11-26T03:04:54.864Z,98089.47
2022-11-26T03:07:21.902Z,98097.25
2022-11-26T03:09:55.118Z,98098.22
2022-11-26T03:12:22.669Z,98093.94
2022-11-26T03:14:49.153Z,98106.09
2022-11-26T03:17:16.502Z,98107.94
2022-11-26T03:19:43.255Z,98101.88
2022-11-26T03:22:10.132Z,98109.72
2022-11-26T03:24:37.375Z,98112.34
2022-11-26T03:27:04.227Z,98108.00
2022-11-26T03:29:31.072Z,98103.88
2022-11-26T03:31:57.816Z,98110.97
2022-11-26T03:34:24.665Z,98105.03
2022-11-26T03:36:51.278Z,98104.47
2022-11-26T03:39:17.896Z,98108.78
2022-11-26T03:41:44.479Z,98115.63
2022-11-26T03:44:12.020Z,98114.69
2022-11-26T03:46:38.592Z,98124.16
2022-11-26T03:49:05.137Z,98121.44
2022-11-26T03:51:31.611Z,98126.38
2022-11-26T03:53:58.180Z,98126.28
2022-11-26T03:56:24.707Z,98126.06
2022-11-26T03:58:51.175Z,98124.34
2022-11-26T04:01:17.901Z,98132.09
2022-11-26T04:03:44.425Z,98132.88
2022-11-26T04:06:11.027Z,98128.47
2022-11-26T04:08:37.489Z,98142.44
2022-11-26T04:11:04.018Z,98143.28
2022-11-26T04:13:30.511Z,98145.03
2022-11-26T04:15:57.002Z,98152.69
2022-11-26T04:18:23.473Z,98147.47
2022-11-26T04:20:53.105Z,98150.16
2022-11-26T04:23:19.971Z,98152.00
2022-11-26T04:25:46.788Z,98157.34
2022-11-26T04:28:15.106Z,98159.22
2022-11-26T04:30:42.735Z,98155.88
2022-11-26T04:33:10.180Z,98155.97
2022-11-26T04:35:38.715Z,98167.34
2022-11-26T04:38:05.771Z,98160.19
2022-11-26T04:40:32.539Z,98166.47
2022-11-26T04:42:59.143Z,98160.44
2022-11-26T04:45:25.702Z,98170.88
2022-11-26T04:47:52.238Z,98164.91
2022-11-26T04:50:19.618Z,98170.19
2022-11-26T04:52:48.558Z,98180.78
2022-11-26T04:55:16.379Z,98180.84
2022-11-26T04:57:43.351Z,98179.06
2022-11-26T05:00:10.997Z,98190.34
2022-11-26T05:02:37.568Z,98183.41
2022-11-26T05:05:04.218Z,98187.78
2022-11-26T05:07:30.826Z,98196.44
2022-11-26T05:09:57.308Z,98199.16
2022-11-26T05:12:23.799Z,98201.72
2022-11-26T05:14:50.309Z,98208.78
2022-11-26T05:17:19.564Z,98212.13
2022-11-26T05:19:46.038Z,98219.94
2022-11-26T05:22:12.604Z,98224.91
2022-11-26T05:24:39.271Z,98223.13
2022-11-26T05:27:05.924Z,98222.13
2022-11-26T05:29:33.222Z,98226.41
2022-11-26T05:31:59.798Z,98228.88
2022-11-26T05:34:26.379Z,98238.50
2022-11-26T05:36:52.931Z,98238.53
2022-11-26T05:39:20.082Z,98240.41
2022-11-26T05:41:46.734Z,98241.16
2022-11-26T05:44:13.211Z,98249.84
2022-11-26T05:46:42.338Z,98252.53
2022-11-26T05:49:09.624Z,98252.53
2022-11-26T05:51:36.137Z,98254.03
2022-11-26T05:54:02.689Z,98247.09
2022-11-26T05:56:29.209Z,98254.09
2022-11-26T05:58:55.667Z,98261.78
2022-11-26T06:01:22.142Z,98255.69
2022-11-26T06:03:48.752Z,98253.03
2022-11-26T06:06:15.291Z,98249.63
2022-11-26T06:08:41.772Z,98257.38
2022-11-26T06:11:12.381Z,98259.97
2022-11-26T06:13:39.181Z,98263.53
2022-11-26T06:16:06.095Z,98265.34
2022-11-26T06:18:32.603Z,98266.31
2022-11-26T06:21:03.810Z,98269.72
2022-11-26T06:23:32.181Z,98278.38
2022-11-26T06:25:58.748Z,98284.38
2022-11-26T06:28:25.563Z,98286.16
2022-11-26T06:30:52.121Z,98279.16
2022-11-26T06:33:18.696Z,98282.50
2022-11-26T06:35:45.176Z,98280.22
2022-11-26T06:38:11.729Z,98283.06
2022-11-26T06:40:38.369Z,98288.78
2022-11-26T06:43:04.817Z,98293.44
2022-11-26T06:45:31.448Z,98300.75
2022-11-26T06:47:57.978Z,98298.25
2022-11-26T06:50:24.663Z,98307.09
2022-11-26T06:52:54.420Z,98309.84
2022-11-26T06:55:21.080Z,98310.56
2022-11-26T06:57:51.822Z,98312.28
2022-11-26T07:00:18.720Z,98317.69
2022-11-26T07:02:45.365Z,98317.66
2022-11-26T07:05:11.930Z,98315.09
2022-11-26T07:07:39.858Z,98314.22
2022-11-26T07:10:07.801Z,98320.13
2022-11-26T07:12:34.364Z,98322.50
2022-11-26T07:15:00.955Z,98321.75
2022-11-26T07:17:28.877Z,98316.44
2022-11-26T07:19:55.390Z,98328.50
2022-11-26T07:22:21.917Z,98323.09
2022-11-26T07:24:48.396Z,98323.94
2022-11-26T07:27:14.923Z,98329.13
2022-11-26T07:29:41.386Z,98340.25
2022-11-26T07:32:07.908Z,98334.13
2022-11-26T07:34:34.381Z,98333.94
2022-11-26T07:37:01.145Z,98341.59
2022-11-26T07:39:27.639Z,98345.13
2022-11-26T07:41:54.128Z,98338.88
2022-11-26T07:44:20.606Z,98335.22
2022-11-26T07:46:47.112Z,98351.44
2022-11-26T07:49:13.599Z,98353.88
2022-11-26T07:51:40.117Z,98352.00
2022-11-26T07:54:08.704Z,98357.16
2022-11-26T07:56:36.051Z,98351.75
2022-11-26T07:59:02.718Z,98360.34
2022-11-26T08:01:30.311Z,98348.81
2022-11-26T08:03:58.262Z,98358.22
2022-11-26T08:06:30.499Z,98367.03
2022-11-26T08:08:59.473Z,98364.53
2022-11-26T08:11:27.963Z,98358.53
2022-11-26T08:13:57.137Z,98367.09
2022-11-26T08:16:23.939Z,98373.34
2022-11-26T08:18:55.101Z,98363.53
2022-11-26T08:21:22.140Z,98369.88
2022-11-26T08:23:48.958Z,98372.50
2022-11-26T08:26:30.707Z,98372.31
2022-11-26T08:29:00.291Z,98377.50
2022-11-26T08:31:28.065Z,98375.72
2022-11-26T08:33:59.366Z,98379.81
2022-11-26T08:36:29.918Z,98378.31
2022-11-26T08:38:57.472Z,98378.53
2022-11-26T08:41:24.064Z,98379.50
2022-11-26T08:44:05.521Z,98384.16
2022-11-26T08:46:32.988Z,98391.88
2022-11-26T08:48:59.715Z,98390.09
2022-11-26T08:51:26.220Z,98390.84
2022-11-26T08:53:52.872Z,98392.75
2022-11-26T08:56:19.517Z,98393.66
2022-11-26T08:58:46.649Z,98389.59
2022-11-26T09:01:22.015Z,98397.94
2022-11-26T09:03:50.525Z,98391.56
2022-11-26T09:06:18.181Z,98401.63
2022-11-26T09:09:02.908Z,98394.19
2022-11-26T09:11:29.534Z,98410.00
2022-11-26T09:13:57.969Z,98411.00
2022-11-26T09:16:25.708Z,98417.69
2022-11-26T09:18:52.755Z,98427.31
2022-11-26T09:21:20.125Z,98421.22
2022-11-26T09:23:46.677Z,98428.34
2022-11-26T09:26:13.251Z,98423.34
2022-11-26T09:28:39.848Z,98425.38
2022-11-26T09:31:06.655Z,98425.97
2022-11-26T09:33:33.207Z,98429.16
2022-11-26T09:36:07.724Z,98435.25
2022-11-26T09:38:34.860Z,98428.63
2022-11-26T09:41:27.455Z,98424.66
2022-11-26T09:44:25.282Z,98432.22
2022-11-26T09:47:13.316Z,98424.88
2022-11-26T09:49:54.882Z,98432.69
2022-11-26T09:52:25.283Z,98430.91
2022-11-26T09:55:01.503Z,98431.66
2022-11-26T09:57:56.721Z,98428.19
2022-11-26T10:00:27.336Z,98428.97
2022-11-26T10:02:55.829Z,98435.78
2022-11-26T10:05:28.801Z,98436.34
2022-11-26T10:08:01.263Z,98440.25
2022-11-26T10:10:49.076Z,98440.66
2022-11-26T10:13:28.520Z,98438.00
2022-11-26T10:16:06.849Z,98444.22
2022-11-26T10:18:36.546Z,98450.59
2022-11-26T10:21:32.429Z,98450.22
2022-11-26T10:24:15.936Z,98450.09
2022-11-26T10:26:43.169Z,98450.47
2022-11-26T10:29:25.644Z,98450.81
2022-11-26T10:32:00.423Z,98451.75
2022-11-26T10:34:43.008Z,98454.31
2022-11-26T10:37:09.819Z,98452.66
2022-11-26T10:39:36.330Z,98451.16
2022-11-26T10:42:22.023Z,98456.41
2022-11-26T10:44:50.513Z,98452.44
2022-11-26T10:47:31.483Z,98451.56
2022-11-26T10:50:07.286Z,98449.31
2022-11-26T10:52:46.435Z,98444.41
2022-11-26T10:55:27.590Z,98447.66
2022-11-26T10:58:02.930Z,98440.03
2022-11-26T11:00:37.895Z,98445.56
2022-11-26T11:03:15.033Z,98437.97
2022-11-26T11:05:44.042Z,98437.47
2022-11-26T11:08:31.089Z,98441.81
2022-11-26T11:11:03.857Z,98430.00
2022-11-26T11:13:42.040Z,98423.59
2022-11-26T11:16:09.896Z,98425.06
2022-11-26T11:18:37.058Z,98418.69
2022-11-26T11:21:05.173Z,98416.03
2022-11-26T11:24:06.984Z,98421.59
2022-11-26T11:26:25.753Z,98419.16
2022-11-26T11:28:54.951Z,98419.41
2022-11-26T11:31:23.924Z,98418.94
2022-11-26T11:33:52.602Z,98422.88
2022-11-26T11:36:26.020Z,98416.16
2022-11-26T11:38:58.001Z,98413.63
2022-11-26T11:41:45.411Z,98411.91
2022-11-26T11:44:26.285Z,98413.50
2022-11-26T11:47:23.462Z,98413.31
2022-11-26T11:50:29.324Z,98418.66
2022-11-26T11:53:33.670Z,98417.88
2022-11-26T11:56:21.928Z,98423.91
2022-11-26T11:59:07.048Z,98421.97
2022-11-26T12:01:48.794Z,98420.72
2022-11-26T12:04:54.004Z,98418.72
2022-11-26T12:07:40.636Z,98417.75
2022-11-26T12:10:10.224Z,98417.19
2022-11-26T12:12:42.303Z,98416.78
2022-11-26T12:15:18.252Z,98411.59
2022-11-26T12:17:50.633Z,98409.38
2022-11-26T12:20:21.130Z,98411.19
2022-11-26T12:23:33.165Z,98417.59
2022-11-26T12:26:02.508Z,98413.50
2022-11-26T12:28:34.209Z,98420.78
2022-11-26T12:31:05.792Z,98424.31
2022-11-26T12:33:35.853Z,98423.41
2022-11-26T12:36:14.697Z,98420.34
2022-11-26T12:38:47.689Z,98418.63
2022-11-26T12:41:22.133Z,98419.13
2022-11-26T12:44:24.196Z,98418.94
2022-11-26T12:47:04.576Z,98419.44
2022-11-26T12:49:43.521Z,98425.88
2022-11-26T12:52:18.694Z,98426.72
2022-11-26T12:54:54.263Z,98423.03
2022-11-26T12:57:23.520Z,98424.31
2022-11-26T13:00:15.227Z,98421.66
2022-11-26T13:02:48.881Z,98423.56
2022-11-26T13:05:20.443Z,98430.19
2022-11-26T13:08:11.633Z,98423.16
2022-11-26T13:11:08.826Z,98414.88
2022-11-26T13:13:36.507Z,98419.66
2022-11-26T13:16:12.998Z,98418.16
2022-11-26T13:18:46.878Z,98417.13
2022-11-26T13:21:48.648Z,98425.16
2022-11-26T13:24:40.056Z,98428.56
2022-11-26T13:27:09.496Z,98431.44
2022-11-26T13:29:59.256Z,98429.94
2022-11-26T13:32:34.914Z,98430.19
2022-11-26T13:35:20.190Z,98432.13
2022-11-26T13:38:11.422Z,98428.53
2022-11-26T13:40:54.734Z,98419.75
2022-11-26T13:44:12.626Z,98420.97
2022-11-26T13:46:48.340Z,98422.03
2022-11-26T13:49:25.922Z,98419.34
2022-11-26T13:52:10.309Z,98420.13
2022-11-26T13:54:48.733Z,98424.00
2022-11-26T13:57:20.984Z,98431.31
2022-11-26T13:59:50.355Z,98439.66
2022-11-26T14:02:38.450Z,98439.28
2022-11-26T14:05:08.624Z,98439.72
2022-11-26T14:07:35.390Z,98441.38
2022-11-26T14:10:04.380Z,98444.59
2022-11-26T14:13:02.112Z,98448.22
2022-11-26T14:15:40.624Z,98436.16
2022-11-26T14:18:14.824Z,98448.50
2022-11-26T14:21:03.970Z,98444.66
2022-11-26T14:23:43.776Z,98444.00
2022-11-26T14:26:15.485Z,98446.31
2022-11-26T14:28:42.035Z,98448.16
2022-11-26T14:31:21.943Z,98446.16
2022-11-26T14:33:51.570Z,98447.25
2022-11-26T14:36:26.532Z,98443.88
2022-11-26T14:39:13.371Z,98440.72
2022-11-26T14:41:42.675Z,98444.25
2022-11-26T14:44:12.781Z,98438.41
2022-11-26T14:46:40.895Z,98442.38
2022-11-26T14:49:26.150Z,98448.06
2022-11-26T14:51:53.831Z,98453.75
2022-11-26T14:54:35.377Z,98448.81
2022-11-26T14:57:14.347Z,98456.25
2022-11-26T15:00:05.545Z,98453.81
2022-11-26T15:02:32.183Z,98454.34
2022-11-26T15:05:12.513Z,98452.94
2022-11-26T15:07:39.115Z,98453.31
2022-11-26T15:10:15.731Z,98454.53
2022-11-26T15:12:43.995Z,98445.28
2022-11-26T15:15:18.282Z,98444.88
2022-11-26T15:17:49.262Z,98452.19
2022-11-26T15:20:18.237Z,98454.31
2022-11-26T15:22:57.294Z,98448.56
2022-11-26T15:25:28.043Z,98454.22
2022-11-26T15:27:54.517Z,98452.88
2022-11-26T15:30:24.424Z,98461.91
2022-11-26T15:33:01.228Z,98452.84
2022-11-26T15:35:28.860Z,98447.13
2022-11-26T15:37:55.410Z,98454.50
2022-11-26T15:40:34.163Z,98450.47
2022-11-26T15:43:04.213Z,98442.34
2022-11-26T15:45:39.467Z,98442.13
2022-11-26T15:48:27.074Z,98443.44
2022-11-26T15:50:59.757Z,98440.41
2022-11-26T15:53:28.975Z,98447.78
2022-11-26T15:55:56.108Z,98447.97
2022-11-26T15:58:28.631Z,98452.50
2022-11-26T16:00:58.550Z,98451.69
2022-11-26T16:03:48.244Z,98456.00
2022-11-26T16:06:34.531Z,98456.16
2022-11-26T16:09:27.859Z,98461.75
2022-11-26T16:12:00.117Z,98461.13
2022-11-26T16:14:31.791Z,98473.50
2022-11-26T16:17:06.582Z,98476.28
2022-11-26T16:19:35.751Z,98483.44
2022-11-26T16:22:04.298Z,98480.88
2022-11-26T16:24:42.566Z,98481.03
2022-11-26T16:27:18.039Z,98478.56
2022-11-26T16:29:45.284Z,98486.47
2022-11-26T16:32:13.746Z,98486.59
2022-11-26T16:34:40.467Z,98494.44
2022-11-26T16:37:31.650Z,98498.03
2022-11-26T16:40:04.412Z,98496.41
2022-11-26T16:42:32.605Z,98496.41
2022-11-26T16:47:52.943Z,98494.97
2022-11-26T16:50:22.227Z,98484.44
2022-11-26T16:52:49.074Z,98491.44
2022-11-26T16:55:19.142Z,98495.84
2022-11-26T16:57:49.733Z,98502.03
2022-11-26T17:00:19.057Z,98503.00
2022-11-26T17:02:46.409Z,98500.41
2022-11-26T17:05:13.138Z,98508.31
2022-11-26T17:07:47.210Z,98505.69
2022-11-26T17:10:21.963Z,98508.38
2022-11-26T17:12:49.738Z,98509.31
2022-11-26T17:15:16.900Z,98500.50
2022-11-26T17:17:43.761Z,98509.28
2022-11-26T17:20:22.430Z,98501.69
2022-11-26T17:22:49.289Z,98496.34
2022-11-26T17:25:15.886Z,98492.13
2022-11-26T17:27:42.698Z,98486.97
2022-11-26T17:30:27.174Z,98489.72
2022-11-26T17:32:53.728Z,98493.19
2022-11-26T17:35:20.230Z,98495.94
2022-11-26T17:37:46.926Z,98490.00
2022-11-26T17:40:21.818Z,98501.28
2022-11-26T17:42:48.879Z,98492.84
2022-11-26T17:45:16.296Z,98496.31
2022-11-26T17:47:43.282Z,98484.25
2022-11-26T17:50:24.272Z,98483.28
2022-11-26T17:52:51.247Z,98484.88
2022-11-26T17:55:18.819Z,98477.06
2022-11-26T17:57:45.439Z,98484.00
2022-11-26T18:00:17.723Z,98483.09
2022-11-26T18:02:46.221Z,98491.88
2022-11-26T18:05:13.771Z,98492.84
2022-11-26T18:07:40.791Z,98498.03
2022-11-26T18:10:11.447Z,98499.84
2022-11-26T18:12:38.558Z,98508.53
2022-11-26T18:15:05.764Z,98503.44
2022-11-26T18:17:32.892Z,98506.13
2022-11-26T18:19:59.543Z,98511.31
2022-11-26T18:22:27.479Z,98512.19
2022-11-26T18:24:56.775Z,98504.41
2022-11-26T18:27:29.173Z,98505.28
2022-11-26T18:29:55.739Z,98509.66
2022-11-26T18:32:22.438Z,98514.06
2022-11-26T18:34:50.504Z,98514.00
2022-11-26T18:37:17.626Z,98507.13
2022-11-26T18:39:44.146Z,98513.19
2022-11-26T18:44:57.787Z,98515.78
2022-11-26T18:47:24.345Z,98514.94
2022-11-26T18:49:51.094Z,98516.63
2022-11-26T18:52:17.822Z,98513.13
2022-11-26T18:54:44.437Z,98516.59
2022-11-26T18:57:10.924Z,98514.84
2022-11-26T18:59:37.956Z,98515.72
2022-11-26T19:02:04.917Z,98513.19
2022-11-26T19:04:31.450Z,98508.88
2022-11-26T19:06:57.953Z,98506.25
2022-11-26T19:09:24.918Z,98511.47
2022-11-26T19:11:54.245Z,98521.00
2022-11-26T19:14:21.281Z,98524.47
2022-11-26T19:16:50.670Z,98524.44
2022-11-26T19:19:17.803Z,98532.19
2022-11-26T19:21:44.392Z,98530.41
2022-11-26T19:24:11.863Z,98539.13
2022-11-26T19:26:41.165Z,98533.13
2022-11-26T19:29:09.098Z,98532.25
2022-11-26T19:31:38.890Z,98528.75
2022-11-26T19:34:08.929Z,98531.34
2022-11-26T19:36:36.798Z,98532.25
2022-11-26T19:39:04.291Z,98537.44
2022-11-26T19:41:30.846Z,98540.91
2022-11-26T19:44:00.534Z,98532.25
2022-11-26T19:46:27.549Z,98540.03
2022-11-26T19:48:55.653Z,98539.16
2022-11-26T19:51:24.475Z,98538.25
2022-11-26T19:53:52.926Z,98541.72
2022-11-26T19:56:22.896Z,98532.28
2022-11-26T19:58:51.420Z,98535.72
2022-11-26T20:01:18.153Z,98535.75
2022-11-26T20:03:45.016Z,98533.16
2022-11-26T20:06:20.939Z,98529.75
2022-11-26T20:08:48.766Z,98533.22
2022-11-26T20:11:16.915Z,98530.66
2022-11-26T20:13:45.277Z,98534.97
2022-11-26T20:16:15.665Z,98524.63
2022-11-26T20:18:42.268Z,98527.22
2022-11-26T20:21:11.498Z,98529.81
2022-11-26T20:23:38.547Z,98535.81
2022-11-26T20:26:17.166Z,98528.91
2022-11-26T20:28:44.525Z,98532.28
2022-11-26T20:31:11.478Z,98528.81
2022-11-26T20:33:38.337Z,98524.47
2022-11-26T20:36:07.288Z,98526.19
2022-11-26T20:38:34.450Z,98516.66
2022-11-26T20:41:01.011Z,98514.94
2022-11-26T20:43:27.499Z,98508.06
2022-11-26T20:46:02.339Z,98507.19
2022-11-26T20:48:30.267Z,98504.59
2022-11-26T20:51:02.586Z,98498.56
2022-11-26T20:53:29.069Z,98502.97
2022-11-26T20:55:56.554Z,98500.41
2022-11-26T20:58:24.564Z,98495.28
2022-11-26T21:00:54.051Z,98492.69
2022-11-26T21:03:25.769Z,98486.66
2022-11-26T21:05:52.543Z,98489.28
2022-11-26T21:08:20.178Z,98487.56
2022-11-26T21:10:46.747Z,98484.16
2022-11-26T21:13:19.616Z,98484.13
2022-11-26T21:15:49.472Z,98482.41
2022-11-26T21:18:16.349Z,98484.19
2022-11-26T21:20:43.998Z,98479.88
2022-11-26T21:23:12.002Z,98485.03
2022-11-26T21:25:43.330Z,98491.97
2022-11-26T21:28:11.355Z,98489.38
2022-11-26T21:30:38.481Z,98489.38
2022-11-26T21:33:09.306Z,98485.94
2022-11-26T21:35:37.088Z,98487.66
2022-11-26T21:38:04.658Z,98489.38
2022-11-26T21:40:31.511Z,98487.66
2022-11-26T21:42:58.265Z,98483.34
2022-11-26T21:45:25.255Z,98482.47
2022-11-26T21:47:52.565Z,98470.41
2022-11-26T21:50:19.719Z,98473.84
2022-11-26T21:52:46.719Z,98474.72
2022-11-26T21:55:13.281Z,98476.44
2022-11-26T21:57:39.858Z,98477.31
2022-11-26T22:00:07.031Z,98476.44
2022-11-26T22:02:33.596Z,98475.59
2022-11-26T22:05:00.188Z,98476.47
2022-11-26T22:07:26.878Z,98475.59
2022-11-26T22:09:53.475Z,98476.50
2022-11-26T22:12:19.951Z,98473.88
2022-11-26T22:14:47.019Z,98476.50
2022-11-26T22:17:13.525Z,98481.66
2022-11-26T22:19:40.096Z,98481.66
2022-11-26T22:22:06.744Z,98487.69
2022-11-26T22:24:33.291Z,98478.22
2022-11-26T22:26:59.820Z,98472.19
2022-11-26T22:29:26.380Z,98485.09
2022-11-26T22:31:52.941Z,98477.38
2022-11-26T22:34:24.600Z,98479.97
2022-11-26T22:36:51.394Z,98479.94
2022-11-26T22:39:18.878Z,98484.25
2022-11-26T22:41:46.790Z,98480.81
2022-11-26T22:44:14.110Z,98473.06
2022-11-26T22:46:40.652Z,98470.47
2022-11-26T22:49:10.707Z,98476.50
2022-11-26T22:51:37.297Z,98479.94
2022-11-26T22:54:07.100Z,98481.66
2022-11-26T22:56:37.660Z,98483.38
2022-11-26T22:59:05.984Z,98477.34
2022-11-26T23:01:34.167Z,98477.34
2022-11-26T23:04:03.003Z,98472.16
2022-11-26T23:06:31.193Z,98468.72
2022-11-26T23:08:59.209Z,98476.47
2022-11-26T23:11:28.967Z,98478.19
2022-11-26T23:13:56.055Z,98484.25
2022-11-26T23:16:25.716Z,98484.22
2022-11-26T23:18:54.985Z,98478.19
2022-11-26T23:21:24.668Z,98479.03
2022-11-26T23:23:51.855Z,98477.28
2022-11-26T23:26:26.790Z,98473.84
2022-11-26T23:28:54.693Z,98470.41
2022-11-26T23:31:24.449Z,98466.94
2022-11-26T23:33:51.646Z,98467.78
2022-11-26T23:36:19.110Z,98472.09
2022-11-26T23:38:46.383Z,98469.53
2022-11-26T23:41:12.995Z,98469.53
2022-11-26T23:43:40.039Z,98470.38
2022-11-26T23:46:13.656Z,98467.81
2022-11-26T23:48:40.248Z,98457.41
2022-11-26T23:51:08.687Z,98456.53
2022-11-26T23:53:40.345Z,98449.63
2022-11-26T23:56:10.897Z,98463.38
2022-11-26T23:58:37.604Z,98459.91
